Terminal Aerodrome Forecast
Issued by NWS

Home | Current Version | Previous Version | Graphics & Text | Print | Product List | Glossary On
Versions: 1 2 3 4 5 6 7 8 9 10 11 12 13 14 15 16 17 18 19 20 21 22 23 24 25 26 27 28 29 30 31
000
FTUS43 KLOT 261600 AAB
TAFDPA
TAF AMD
KDPA 261607Z 2616/2712 36012KT 3SM -SN BKN018 OVC040
     FM261800 36012KT P6SM BKN035
     FM261900 35011KT P6SM SCT035
     FM270000 33007KT P6SM FEW040=

USA.gov is the U.S. government's official web portal to all federal, state and local government web resources and services.